createdAt,value
2018-09-25T00:01:34.707Z,4.70
2018-09-25T00:04:07.971Z,4.70
2018-09-25T00:06:41.339Z,4.50
2018-09-25T00:09:15.156Z,4.50
2018-09-25T00:11:48.588Z,4.10
2018-09-25T00:14:21.763Z,4.60
2018-09-25T00:16:54.948Z,4.60
2018-09-25T00:19:28.254Z,4.50
2018-09-25T00:22:01.372Z,4.73
2018-09-25T00:24:34.591Z,4.50
2018-09-25T00:27:07.748Z,4.37
2018-09-25T00:29:40.958Z,4.57
2018-09-25T00:32:14.097Z,4.70
2018-09-25T00:34:47.369Z,5.87
2018-09-25T00:37:20.552Z,4.43
2018-09-25T00:39:53.696Z,4.80
2018-09-25T00:42:26.826Z,4.40
2018-09-25T00:45:00.012Z,4.43
2018-09-25T00:47:33.189Z,4.23
2018-09-25T00:50:06.447Z,4.40
2018-09-25T00:52:39.815Z,4.87
2018-09-25T00:55:13.063Z,4.77
2018-09-25T00:57:46.298Z,4.00
2018-09-25T01:00:19.443Z,4.10
2018-09-25T01:02:52.611Z,4.00
2018-09-25T01:05:25.802Z,3.67
2018-09-25T01:07:58.877Z,4.10
2018-09-25T01:10:32.130Z,4.50
2018-09-25T01:13:05.452Z,4.50
2018-09-25T01:15:38.663Z,4.80
2018-09-25T01:18:11.894Z,4.70
2018-09-25T01:20:45.152Z,4.27
2018-09-25T01:23:18.358Z,4.07
2018-09-25T01:25:51.525Z,3.97
2018-09-25T01:28:24.707Z,4.70
2018-09-25T01:30:57.883Z,4.33
2018-09-25T01:33:31.125Z,4.03
2018-09-25T01:36:04.347Z,4.63
2018-09-25T01:38:37.532Z,4.67
2018-09-25T01:41:10.771Z,4.93
2018-09-25T01:43:44.031Z,4.70
2018-09-25T01:46:17.315Z,5.43
2018-09-25T01:48:50.478Z,4.93
2018-09-25T01:51:23.716Z,4.37
2018-09-25T01:53:56.890Z,5.23
2018-09-25T01:56:30.055Z,4.90
2018-09-25T01:59:03.170Z,5.27
2018-09-25T02:01:36.409Z,4.80
2018-09-25T02:04:09.645Z,4.50
2018-09-25T02:06:42.835Z,4.50
2018-09-25T02:09:16.115Z,5.40
2018-09-25T02:11:49.407Z,4.90
2018-09-25T02:14:22.697Z,4.50
2018-09-25T02:16:55.911Z,4.83
2018-09-25T02:19:29.614Z,4.83
2018-09-25T02:22:02.927Z,5.10
2018-09-25T02:24:36.027Z,4.75
2018-09-25T02:27:09.379Z,5.17
2018-09-25T02:29:42.586Z,4.93
2018-09-25T02:32:15.706Z,4.80
2018-09-25T02:34:49.003Z,5.17
2018-09-25T02:37:22.255Z,4.97
2018-09-25T02:39:55.387Z,4.50
2018-09-25T02:42:28.623Z,4.57
2018-09-25T02:45:01.828Z,4.53
2018-09-25T02:47:35.079Z,4.60
2018-09-25T02:50:08.403Z,4.27
2018-09-25T02:52:41.619Z,4.17
2018-09-25T02:55:14.736Z,4.47
2018-09-25T02:57:47.972Z,4.60
2018-09-25T03:00:21.348Z,4.73
2018-09-25T03:02:54.661Z,4.53
2018-09-25T03:05:27.827Z,4.47
2018-09-25T03:08:01.179Z,4.57
2018-09-25T03:10:34.384Z,4.50
2018-09-25T03:13:07.650Z,4.43
2018-09-25T03:15:40.868Z,4.20
2018-09-25T03:18:14.211Z,4.27
2018-09-25T03:20:47.467Z,4.37
2018-09-25T03:23:20.807Z,4.03
2018-09-25T03:25:53.947Z,4.23
2018-09-25T03:28:27.452Z,4.60
2018-09-25T03:31:00.578Z,4.53
2018-09-25T03:33:33.826Z,4.27
2018-09-25T03:36:06.990Z,3.90
2018-09-25T03:38:40.177Z,3.90
2018-09-25T03:41:13.428Z,4.73
2018-09-25T03:43:46.591Z,4.37
2018-09-25T03:46:19.718Z,3.93
2018-09-25T03:48:53.007Z,5.07
2018-09-25T03:51:26.188Z,4.17
2018-09-25T03:53:59.555Z,4.13
2018-09-25T03:56:32.861Z,4.40
2018-09-25T03:59:06.172Z,4.50
2018-09-25T04:01:39.469Z,4.60
2018-09-25T04:04:12.603Z,4.27
2018-09-25T04:06:45.798Z,4.93
2018-09-25T04:09:25.972Z,4.27
2018-09-25T04:11:59.215Z,4.50
2018-09-25T04:14:32.547Z,4.13
2018-09-25T04:17:05.736Z,5.40
2018-09-25T04:19:38.895Z,4.50
2018-09-25T04:22:12.147Z,4.00
2018-09-25T04:24:45.376Z,4.93
2018-09-25T04:27:18.632Z,4.10
2018-09-25T04:29:51.867Z,4.10
2018-09-25T04:32:25.158Z,3.90
2018-09-25T04:34:58.375Z,4.03
2018-09-25T04:37:31.514Z,4.20
2018-09-25T04:40:04.764Z,4.27
2018-09-25T04:42:37.919Z,4.33
2018-09-25T04:45:11.535Z,3.60
2018-09-25T04:47:44.714Z,3.70
2018-09-25T04:50:17.954Z,3.40
2018-09-25T04:52:51.211Z,3.90
2018-09-25T04:55:24.423Z,3.50
2018-09-25T04:57:57.608Z,3.40
2018-09-25T05:00:30.864Z,7.63
2018-09-25T05:03:04.090Z,3.50
2018-09-25T05:05:37.259Z,3.60
2018-09-25T05:08:10.394Z,3.13
2018-09-25T05:10:43.622Z,3.23
2018-09-25T05:13:16.775Z,2.77
2018-09-25T05:15:50.064Z,3.07
2018-09-25T05:18:23.343Z,2.80
2018-09-25T05:20:56.583Z,2.67
2018-09-25T05:23:29.796Z,2.37
2018-09-25T05:26:03.000Z,2.33
2018-09-25T05:28:36.187Z,2.10
2018-09-25T05:31:09.455Z,2.23
2018-09-25T05:33:42.614Z,2.23
2018-09-25T05:36:15.828Z,2.40
2018-09-25T05:38:49.172Z,2.30
2018-09-25T05:41:22.402Z,2.80
2018-09-25T05:43:55.593Z,2.60
2018-09-25T05:46:28.838Z,3.10
2018-09-25T05:49:02.207Z,3.13
2018-09-25T05:51:35.451Z,3.07
2018-09-25T05:54:08.580Z,2.47
2018-09-25T05:56:41.771Z,2.60
2018-09-25T05:59:14.982Z,3.13
2018-09-25T06:01:48.333Z,2.73
2018-09-25T06:04:21.599Z,3.27
2018-09-25T06:06:54.848Z,3.33
2018-09-25T06:09:28.112Z,2.90
2018-09-25T06:12:01.504Z,3.23
2018-09-25T06:14:34.682Z,3.50
2018-09-25T06:17:07.967Z,3.03
2018-09-25T06:19:41.310Z,2.93
2018-09-25T06:22:14.648Z,3.10
2018-09-25T06:24:47.871Z,2.90
2018-09-25T06:27:21.189Z,2.10
2018-09-25T06:29:54.580Z,3.30
2018-09-25T06:32:27.933Z,3.03
2018-09-25T06:35:01.234Z,2.83
2018-09-25T06:37:34.370Z,2.77
2018-09-25T06:40:07.608Z,2.90
2018-09-25T06:42:40.790Z,2.77
2018-09-25T06:45:13.947Z,3.10
2018-09-25T06:47:47.316Z,3.00
2018-09-25T06:50:20.446Z,2.90
2018-09-25T06:52:53.703Z,2.90
2018-09-25T06:55:27.010Z,3.00
2018-09-25T06:58:00.202Z,2.50
2018-09-25T07:00:33.345Z,2.30
2018-09-25T07:03:06.520Z,2.60
2018-09-25T07:05:39.701Z,2.23
2018-09-25T07:08:13.219Z,2.60
2018-09-25T07:10:46.409Z,2.43
2018-09-25T07:13:19.755Z,2.17
2018-09-25T07:15:53.010Z,2.67
2018-09-25T07:18:26.436Z,2.80
2018-09-25T07:20:59.708Z,2.30
2018-09-25T07:23:32.895Z,2.50
2018-09-25T07:26:06.071Z,2.80
2018-09-25T07:28:39.263Z,2.47
2018-09-25T07:31:12.455Z,2.90
2018-09-25T07:33:45.599Z,2.80
2018-09-25T07:36:18.767Z,3.97
2018-09-25T07:38:51.893Z,2.97
2018-09-25T07:41:25.200Z,2.90
2018-09-25T07:43:58.513Z,2.50
2018-09-25T07:46:31.718Z,2.43
2018-09-25T07:49:04.980Z,2.80
2018-09-25T07:51:38.128Z,2.50
2018-09-25T07:54:11.424Z,3.00
2018-09-25T07:56:44.833Z,2.57
2018-09-25T07:59:18.103Z,2.70
2018-09-25T08:01:51.324Z,2.50
2018-09-25T08:04:24.514Z,2.77
2018-09-25T08:06:57.820Z,2.70
2018-09-25T08:09:31.051Z,2.57
2018-09-25T08:12:04.355Z,2.90
2018-09-25T08:14:37.608Z,2.50
2018-09-25T08:17:10.991Z,2.67
2018-09-25T08:19:44.262Z,3.27
2018-09-25T08:22:17.522Z,2.97
2018-09-25T08:24:50.967Z,3.13
2018-09-25T08:27:24.154Z,2.57
2018-09-25T08:29:57.324Z,2.87
2018-09-25T08:32:30.483Z,2.90
2018-09-25T08:35:03.860Z,3.00
2018-09-25T08:37:37.063Z,2.30
2018-09-25T08:40:10.574Z,2.70
2018-09-25T08:42:43.795Z,2.73
2018-09-25T08:45:16.992Z,2.90
2018-09-25T08:47:51.179Z,2.70
2018-09-25T08:50:24.409Z,2.87
2018-09-25T08:52:57.714Z,2.73
2018-09-25T08:55:30.983Z,2.77
2018-09-25T08:58:04.291Z,2.67
2018-09-25T09:00:37.466Z,2.77
2018-09-25T09:03:10.762Z,2.80
2018-09-25T09:05:43.915Z,2.43
2018-09-25T09:08:17.039Z,2.20
2018-09-25T09:10:50.359Z,2.90
2018-09-25T09:13:23.523Z,2.53
2018-09-25T09:15:56.785Z,3.30
2018-09-25T09:18:29.935Z,2.90
2018-09-25T09:21:03.204Z,3.17
2018-09-25T09:23:36.435Z,2.97
2018-09-25T09:26:09.625Z,2.60
2018-09-25T09:28:42.790Z,2.67
2018-09-25T09:31:15.947Z,2.50
2018-09-25T09:33:49.097Z,2.60
2018-09-25T09:36:22.280Z,2.60
2018-09-25T09:38:55.501Z,2.50
2018-09-25T09:41:28.892Z,2.50
2018-09-25T09:44:01.958Z,2.03
2018-09-25T09:46:35.343Z,2.40
2018-09-25T09:49:08.538Z,2.60
2018-09-25T09:51:41.752Z,2.30
2018-09-25T09:54:14.916Z,2.57
2018-09-25T09:56:48.099Z,2.60
2018-09-25T09:59:21.370Z,2.43
2018-09-25T10:01:54.523Z,2.03
2018-09-25T10:04:27.756Z,2.20
2018-09-25T10:07:01.007Z,2.00
2018-09-25T10:09:34.430Z,2.00
2018-09-25T10:12:07.646Z,2.00
2018-09-25T10:14:40.825Z,1.60
2018-09-25T10:17:14.006Z,2.10
2018-09-25T10:19:47.205Z,1.73
2018-09-25T10:22:20.444Z,2.07
2018-09-25T10:24:53.648Z,1.90
2018-09-25T10:27:26.963Z,1.57
2018-09-25T10:30:00.145Z,1.43
2018-09-25T10:32:33.602Z,1.40
2018-09-25T10:35:06.727Z,1.40
2018-09-25T10:37:40.045Z,1.70
2018-09-25T10:40:13.450Z,1.60
2018-09-25T10:42:46.677Z,2.10
2018-09-25T10:45:19.852Z,1.67
2018-09-25T10:47:53.312Z,1.70
2018-09-25T10:50:26.637Z,2.00
2018-09-25T10:52:59.873Z,1.40
2018-09-25T10:55:33.157Z,1.70
2018-09-25T10:58:06.608Z,1.40
2018-09-25T11:00:39.928Z,1.80
2018-09-25T11:03:13.249Z,1.90
2018-09-25T11:05:46.637Z,1.50
2018-09-25T11:08:19.840Z,1.40
2018-09-25T11:10:53.014Z,1.40
2018-09-25T11:13:26.261Z,1.60
2018-09-25T11:15:59.460Z,1.70
2018-09-25T11:18:32.695Z,1.90
2018-09-25T11:21:05.927Z,1.80
2018-09-25T11:23:39.158Z,1.60
2018-09-25T11:26:12.330Z,1.90
2018-09-25T11:28:45.650Z,1.90
2018-09-25T11:31:18.868Z,1.63
2018-09-25T11:33:52.375Z,1.90
2018-09-25T11:36:25.734Z,1.70
2018-09-25T11:38:58.899Z,1.37
2018-09-25T11:41:31.978Z,1.37
2018-09-25T11:44:05.224Z,1.47
2018-09-25T11:46:38.503Z,1.63
2018-09-25T11:49:11.735Z,1.50
2018-09-25T11:51:45.077Z,1.70
2018-09-25T11:54:18.305Z,1.60
2018-09-25T11:56:51.583Z,1.30
2018-09-25T11:59:24.788Z,1.63
2018-09-25T12:01:57.964Z,1.27
2018-09-25T12:04:31.253Z,1.53
2018-09-25T12:07:05.544Z,1.20
2018-09-25T12:09:38.707Z,1.33
2018-09-25T12:12:12.110Z,1.47
2018-09-25T12:14:45.307Z,1.47
2018-09-25T12:17:18.507Z,1.60
2018-09-25T12:19:51.783Z,2.77
2018-09-25T12:22:24.929Z,1.73
2018-09-25T12:24:58.127Z,1.40
2018-09-25T12:27:31.368Z,1.67
2018-09-25T12:30:04.608Z,1.60
2018-09-25T12:32:37.843Z,1.40
2018-09-25T12:35:11.241Z,1.37
2018-09-25T12:37:44.679Z,1.30
2018-09-25T12:40:18.028Z,1.50
2018-09-25T12:42:51.186Z,1.40
2018-09-25T12:45:24.385Z,1.60
2018-09-25T12:47:57.635Z,1.40
2018-09-25T12:50:30.863Z,1.23
2018-09-25T12:53:04.053Z,1.33
2018-09-25T12:55:37.423Z,1.27
2018-09-25T12:58:10.657Z,1.30
2018-09-25T13:00:43.950Z,1.60
2018-09-25T13:03:17.233Z,1.50
2018-09-25T13:05:50.505Z,1.43
2018-09-25T13:08:23.840Z,1.40
2018-09-25T13:10:57.093Z,1.57
2018-09-25T13:13:30.340Z,1.10
2018-09-25T13:16:03.631Z,1.60
2018-09-25T13:18:36.809Z,1.30
2018-09-25T13:21:10.269Z,1.20
2018-09-25T13:23:43.543Z,1.60
2018-09-25T13:26:16.970Z,1.37
2018-09-25T13:28:50.273Z,1.70
2018-09-25T13:31:23.470Z,1.40
2018-09-25T13:33:56.834Z,1.40
2018-09-25T13:36:30.114Z,1.60
2018-09-25T13:39:03.424Z,1.30
2018-09-25T13:41:36.625Z,1.47
2018-09-25T13:44:09.873Z,1.30
2018-09-25T13:46:43.314Z,1.50
2018-09-25T13:49:16.809Z,1.50
2018-09-25T13:51:49.922Z,1.40
2018-09-25T13:54:23.378Z,1.40
2018-09-25T13:56:56.654Z,1.53
2018-09-25T13:59:30.033Z,1.10
2018-09-25T14:02:03.199Z,1.50
2018-09-25T14:04:36.336Z,1.30
2018-09-25T14:07:09.486Z,1.37
2018-09-25T14:09:42.866Z,1.30
2018-09-25T14:12:16.244Z,1.83
2018-09-25T14:14:49.362Z,1.30
2018-09-25T14:17:22.724Z,1.50
2018-09-25T14:19:56.044Z,1.20
2018-09-25T14:22:29.531Z,1.40
2018-09-25T14:25:02.657Z,0.90
2018-09-25T14:27:35.956Z,1.60
2018-09-25T14:30:09.295Z,1.10
2018-09-25T14:32:42.473Z,1.40
2018-09-25T14:35:15.615Z,1.10
2018-09-25T14:37:49.027Z,1.00
2018-09-25T14:40:22.212Z,1.10
2018-09-25T14:42:55.374Z,1.30
2018-09-25T14:45:28.793Z,1.27
2018-09-25T14:48:02.062Z,1.43
2018-09-25T14:50:35.205Z,1.50
2018-09-25T14:53:08.438Z,1.53
2018-09-25T14:55:41.552Z,1.80
2018-09-25T14:58:14.855Z,1.60
2018-09-25T15:00:48.253Z,1.60
2018-09-25T15:03:21.615Z,1.90
2018-09-25T15:05:54.900Z,1.70
2018-09-25T15:08:28.106Z,1.57
2018-09-25T15:11:01.361Z,1.50
2018-09-25T15:13:34.637Z,1.70
2018-09-25T15:16:08.017Z,1.60
2018-09-25T15:18:41.320Z,1.43
2018-09-25T15:21:14.669Z,1.60
2018-09-25T15:23:47.891Z,1.50
2018-09-25T15:26:21.244Z,1.73
2018-09-25T15:28:54.411Z,1.53
2018-09-25T15:31:27.823Z,1.70
2018-09-25T15:34:01.006Z,1.70
2018-09-25T15:36:34.307Z,1.30
2018-09-25T15:39:07.826Z,1.60
2018-09-25T15:41:41.240Z,1.50
2018-09-25T15:44:14.462Z,1.50
2018-09-25T15:46:47.647Z,1.50
2018-09-25T15:49:20.920Z,1.70
2018-09-25T15:51:54.141Z,1.50
2018-09-25T15:54:27.418Z,1.40
2018-09-25T15:57:00.731Z,1.30
2018-09-25T15:59:33.931Z,1.50
2018-09-25T16:02:07.107Z,1.33
2018-09-25T16:04:40.330Z,1.50
2018-09-25T16:07:13.547Z,2.70
2018-09-25T16:09:46.798Z,5.50
2018-09-25T16:12:20.261Z,2.20
2018-09-25T16:14:53.572Z,3.37
2018-09-25T16:17:26.882Z,2.50
2018-09-25T16:20:00.362Z,3.37
2018-09-25T16:22:33.695Z,1.80
2018-09-25T16:25:06.918Z,1.70
2018-09-25T16:27:40.065Z,1.37
2018-09-25T16:30:13.423Z,1.50
2018-09-25T16:32:46.720Z,1.50
2018-09-25T16:35:19.936Z,1.50
2018-09-25T16:37:53.240Z,1.53
2018-09-25T16:40:26.506Z,1.80
2018-09-25T16:42:59.761Z,1.90
2018-09-25T16:45:32.957Z,1.60
2018-09-25T16:48:06.227Z,1.30
2018-09-25T16:50:39.445Z,2.40
2018-09-25T16:53:12.706Z,1.40
2018-09-25T16:55:46.067Z,1.30
2018-09-25T16:58:19.290Z,1.50
2018-09-25T17:00:52.636Z,1.60
2018-09-25T17:03:25.988Z,1.70
2018-09-25T17:05:59.263Z,1.80
2018-09-25T17:08:32.426Z,1.60
2018-09-25T17:11:05.626Z,1.67
2018-09-25T17:13:39.119Z,1.40
2018-09-25T17:16:12.401Z,1.90
2018-09-25T17:18:45.571Z,1.60
2018-09-25T17:21:18.923Z,1.50
2018-09-25T17:23:52.092Z,1.50
2018-09-25T17:26:25.362Z,1.40
2018-09-25T17:28:58.472Z,1.60
2018-09-25T17:31:31.669Z,1.40
2018-09-25T17:34:04.971Z,1.50
2018-09-25T17:36:38.325Z,1.70
2018-09-25T17:39:13.540Z,1.53
2018-09-25T17:41:47.447Z,1.70
2018-09-25T17:44:20.641Z,1.80
2018-09-25T17:46:53.830Z,2.10
2018-09-25T17:49:27.038Z,1.93
2018-09-25T17:52:00.215Z,2.10
2018-09-25T17:54:33.704Z,2.00
2018-09-25T17:57:07.760Z,1.80
2018-09-25T17:59:41.000Z,1.83
2018-09-25T18:02:14.304Z,1.87
2018-09-25T18:04:47.538Z,2.10
2018-09-25T18:07:20.963Z,2.50
2018-09-25T18:09:54.194Z,2.33
2018-09-25T18:12:27.524Z,2.30
2018-09-25T18:15:00.718Z,2.20
2018-09-25T18:17:34.026Z,2.20
2018-09-25T18:20:07.123Z,2.40
2018-09-25T18:22:40.513Z,2.77
2018-09-25T18:25:13.731Z,2.13
2018-09-25T18:27:46.957Z,2.00
2018-09-25T18:30:20.134Z,2.50
2018-09-25T18:32:53.559Z,2.23
2018-09-25T18:35:26.848Z,1.83
2018-09-25T18:38:00.000Z,2.00
2018-09-25T18:40:33.048Z,1.93
2018-09-25T18:43:06.455Z,1.90
2018-09-25T18:45:39.643Z,2.60
2018-09-25T18:48:12.973Z,2.20
2018-09-25T18:50:46.324Z,2.20
2018-09-25T18:53:19.577Z,2.10
2018-09-25T18:55:52.795Z,1.93
2018-09-25T18:58:26.008Z,2.10
2018-09-25T19:00:59.183Z,2.10
2018-09-25T19:03:32.579Z,2.00
2018-09-25T19:06:05.744Z,2.33
2018-09-25T19:08:38.956Z,2.20
2018-09-25T19:11:12.395Z,2.40
2018-09-25T19:13:45.735Z,3.10
2018-09-25T19:16:18.976Z,2.60
2018-09-25T19:18:52.137Z,2.10
2018-09-25T19:21:25.450Z,2.20
2018-09-25T19:23:58.743Z,1.90
2018-09-25T19:26:31.951Z,2.10
2018-09-25T19:29:05.203Z,2.20
2018-09-25T19:31:38.329Z,2.13
2018-09-25T19:34:11.512Z,1.97
2018-09-25T19:36:44.638Z,2.10
2018-09-25T19:39:17.807Z,1.90
2018-09-25T19:41:50.978Z,2.13
2018-09-25T19:44:24.215Z,2.30
2018-09-25T19:46:57.596Z,2.10
2018-09-25T19:49:30.927Z,2.30
2018-09-25T19:52:04.176Z,1.83
2018-09-25T19:54:37.472Z,2.37
2018-09-25T19:57:10.880Z,1.97
2018-09-25T19:59:44.099Z,2.00
2018-09-25T20:02:17.215Z,1.93
2018-09-25T20:04:50.402Z,1.97
2018-09-25T20:07:23.669Z,1.80
2018-09-25T20:09:57.031Z,1.77
2018-09-25T20:12:30.279Z,1.90
2018-09-25T20:15:03.714Z,1.57
2018-09-25T20:17:36.807Z,1.60
2018-09-25T20:20:10.319Z,1.80
2018-09-25T20:22:43.545Z,1.70
2018-09-25T20:25:16.824Z,1.60
2018-09-25T20:27:50.047Z,1.47
2018-09-25T20:30:23.338Z,1.67
2018-09-25T20:32:56.704Z,2.50
2018-09-25T20:35:30.028Z,2.90
2018-09-25T20:38:03.279Z,1.63
2018-09-25T20:40:36.508Z,1.50
2018-09-25T20:43:09.776Z,1.80
2018-09-25T20:45:43.040Z,1.80
2018-09-25T20:48:16.322Z,1.67
2018-09-25T20:50:49.611Z,1.60
2018-09-25T20:53:22.727Z,1.57
2018-09-25T20:55:56.038Z,1.73
2018-09-25T20:58:29.260Z,1.70
2018-09-25T21:01:02.459Z,1.50
2018-09-25T21:03:35.776Z,1.60
2018-09-25T21:06:09.039Z,1.90
2018-09-25T21:08:42.237Z,1.70
2018-09-25T21:11:15.463Z,1.60
2018-09-25T21:13:48.854Z,1.90
2018-09-25T21:16:22.251Z,2.00
2018-09-25T21:18:55.474Z,1.90
2018-09-25T21:21:28.881Z,1.60
2018-09-25T21:24:02.138Z,1.60
2018-09-25T21:26:35.382Z,1.53
2018-09-25T21:29:08.724Z,1.70
2018-09-25T21:31:42.191Z,1.70
2018-09-25T21:34:15.446Z,1.50
2018-09-25T21:36:48.674Z,1.53
2018-09-25T21:39:21.908Z,1.47
2018-09-25T21:41:55.114Z,1.50
2018-09-25T21:44:28.352Z,1.40
2018-09-25T21:47:01.556Z,1.37
2018-09-25T21:49:34.848Z,1.83
2018-09-25T21:52:08.060Z,1.57
2018-09-25T21:54:41.379Z,1.50
2018-09-25T21:57:14.757Z,1.77
2018-09-25T21:59:47.787Z,1.40
2018-09-25T22:02:21.008Z,1.70
2018-09-25T22:04:54.243Z,1.47
2018-09-25T22:07:27.443Z,1.57
2018-09-25T22:10:00.685Z,1.50
2018-09-25T22:12:34.016Z,2.00
2018-09-25T22:15:07.227Z,1.50
2018-09-25T22:17:40.427Z,1.63
2018-09-25T22:20:13.724Z,1.50
2018-09-25T22:22:46.964Z,1.30
2018-09-25T22:25:20.484Z,1.40
2018-09-25T22:27:53.956Z,1.50
2018-09-25T22:30:27.232Z,2.10
2018-09-25T22:33:00.448Z,1.40
2018-09-25T22:35:33.825Z,1.57
2018-09-25T22:38:07.087Z,1.77
2018-09-25T22:40:40.539Z,1.60
2018-09-25T22:43:13.736Z,2.00
2018-09-25T22:45:47.243Z,1.67
2018-09-25T22:48:20.599Z,1.80
2018-09-25T22:50:53.783Z,2.00
2018-09-25T22:53:26.993Z,2.17
2018-09-25T22:56:00.410Z,1.77
2018-09-25T22:58:33.838Z,1.63
2018-09-25T23:01:07.035Z,1.43
2018-09-25T23:03:40.369Z,1.73
2018-09-25T23:06:13.591Z,2.00
2018-09-25T23:08:46.899Z,1.90
2018-09-25T23:11:20.303Z,2.23
2018-09-25T23:13:53.723Z,1.73
2018-09-25T23:16:27.202Z,1.93
2018-09-25T23:19:00.654Z,1.90
2018-09-25T23:21:33.965Z,1.90
2018-09-25T23:24:07.414Z,2.20
2018-09-25T23:26:40.884Z,1.70
2018-09-25T23:29:14.121Z,1.80
2018-09-25T23:31:47.325Z,1.53
2018-09-25T23:34:20.750Z,1.90
2018-09-25T23:36:54.167Z,1.87
2018-09-25T23:39:27.326Z,1.77
2018-09-25T23:42:33.213Z,2.00
2018-09-25T23:45:06.610Z,1.77
2018-09-25T23:47:39.810Z,1.63
2018-09-25T23:50:13.123Z,1.70
2018-09-25T23:52:54.569Z,2.03
2018-09-25T23:55:29.865Z,1.93
2018-09-25T23:58:00.370Z,1.63
